Time;durP1;ratioP1;P1;durP2;ratioP2;P2;SDS_P1;SDS_P2;PMS_P1;PMS_P2;Temp;Humidity;BMP_temperature;BMP_pressure;BME280_temperature;BME280_humidity;BME280_pressure;Samples;Min_cycle;Max_cycle;Signal;HPM_P1;HPM_P2
2021/06/03 00:01:30;;;;;;;1.63;1.52;;;;;;;;;;5034147;28;20080;-82
2021/06/03 00:03:56;;;;;;;2.10;2.00;;;;;;;;;;5034089;28;20037;-82
2021/06/03 00:06:22;;;;;;;2.60;1.08;;;;;;;;;;5033143;28;20025;-82
2021/06/03 00:08:48;;;;;;;1.55;1.42;;;;;;;;;;5034027;28;20034;-82
2021/06/03 00:11:15;;;;;;;3.13;2.53;;;;;;;;;;5033883;28;20483;-82
2021/06/03 00:13:44;;;;;;;2.63;1.30;;;;;;;;;;5032700;28;20383;-82
2021/06/03 00:16:12;;;;;;;2.20;1.60;;;;;;;;;;5033896;28;20076;-82
2021/06/03 00:18:38;;;;;;;2.33;2.13;;;;;;;;;;5033611;28;20041;-82
2021/06/03 00:21:05;;;;;;;1.33;1.23;;;;;;;;;;5033263;28;20091;-82
2021/06/03 00:23:31;;;;;;;1.75;1.65;;;;;;;;;;5033765;28;20029;-82
2021/06/03 00:25:57;;;;;;;2.03;1.38;;;;;;;;;;5033691;28;20030;-82
2021/06/03 00:28:23;;;;;;;2.05;1.70;;;;;;;;;;5033134;28;20040;-82
2021/06/03 00:30:50;;;;;;;1.60;1.10;;;;;;;;;;5033552;28;20030;-82
2021/06/03 00:33:16;;;;;;;1.67;1.55;;;;;;;;;;5033236;28;20571;-82
2021/06/03 00:35:43;;;;;;;1.50;1.38;;;;;;;;;;5033433;28;20029;-82
2021/06/03 00:38:09;;;;;;;1.48;1.38;;;;;;;;;;5032777;28;20030;-82
2021/06/03 00:40:36;;;;;;;1.33;1.17;;;;;;;;;;5033384;28;20450;-82
2021/06/03 00:43:02;;;;;;;2.15;1.13;;;;;;;;;;5033381;28;20022;-82
2021/06/03 00:45:33;;;;;;;2.22;1.48;;;;;;;;;;5033099;28;20029;-82
2021/06/03 00:47:59;;;;;;;1.52;1.40;;;;;;;;;;5032976;28;20124;-82
2021/06/03 00:50:31;;;;;;;2.58;1.15;;;;;;;;;;5033172;28;20056;-82
2021/06/03 00:52:57;;;;;;;1.58;1.38;;;;;;;;;;5033533;28;20104;-82
2021/06/03 00:55:23;;;;;;;2.25;2.13;;;;;;;;;;5033050;28;20033;-82
2021/06/03 00:57:49;;;;;;;2.08;1.98;;;;;;;;;;5032929;28;20108;-82
2021/06/03 01:00:16;;;;;;;1.63;1.55;;;;;;;;;;5031826;28;20056;-82
2021/06/03 01:02:43;;;;;;;2.35;1.33;;;;;;;;;;5033177;28;20029;-82
2021/06/03 01:05:13;;;;;;;3.08;1.73;;;;;;;;;;5031364;28;20452;-82
2021/06/03 01:07:39;;;;;;;3.63;2.00;;;;;;;;;;5032068;28;20030;-82
2021/06/03 01:10:10;;;;;;;1.00;1.00;;;;;;;;;;5032339;28;20095;-82
2021/06/03 01:12:44;;;;;;;1.60;1.50;;;;;;;;;;5033139;28;20114;-82
2021/06/03 01:15:11;;;;;;;2.42;1.20;;;;;;;;;;5031653;28;20022;-81
2021/06/03 01:17:38;;;;;;;2.67;1.63;;;;;;;;;;5032023;28;20076;-82
2021/06/03 01:20:05;;;;;;;1.40;1.30;;;;;;;;;;5032462;28;20029;-82
2021/06/03 01:22:46;;;;;;;1.67;1.20;;;;;;;;;;5032773;28;20025;-82
2021/06/03 01:25:12;;;;;;;1.30;1.17;;;;;;;;;;5031503;28;20096;-82
2021/06/03 01:27:39;;;;;;;1.52;1.42;;;;;;;;;;5032311;28;20044;-82
2021/06/03 01:30:11;;;;;;;1.77;1.52;;;;;;;;;;5031751;28;20029;-82
2021/06/03 01:32:40;;;;;;;2.05;1.38;;;;;;;;;;5031383;28;20101;-82
2021/06/03 01:35:10;;;;;;;1.17;1.17;;;;;;;;;;5031570;28;20502;-82
2021/06/03 01:37:38;;;;;;;1.38;1.10;;;;;;;;;;5031391;28;20022;-82
2021/06/03 01:40:06;;;;;;;1.25;1.10;;;;;;;;;;5030310;28;20030;-82
2021/06/03 01:42:32;;;;;;;0.95;0.95;;;;;;;;;;5032374;28;20064;-82
2021/06/03 01:44:58;;;;;;;2.00;1.85;;;;;;;;;;5032250;28;20091;-82
2021/06/03 01:47:24;;;;;;;4.22;1.40;;;;;;;;;;5030724;28;20034;-82
2021/06/03 01:49:50;;;;;;;2.25;1.80;;;;;;;;;;5031577;28;20022;-82
2021/06/03 01:52:17;;;;;;;2.63;1.15;;;;;;;;;;5031794;28;20029;-82
2021/06/03 01:54:43;;;;;;;1.25;1.15;;;;;;;;;;5031929;28;20048;-82
2021/06/03 01:57:09;;;;;;;1.40;1.30;;;;;;;;;;5030384;28;20460;-82
2021/06/03 01:59:36;;;;;;;1.45;1.35;;;;;;;;;;5031496;28;20029;-82
2021/06/03 02:02:02;;;;;;;1.65;1.30;;;;;;;;;;5031440;28;20212;-82
2021/06/03 02:04:28;;;;;;;1.48;1.27;;;;;;;;;;5031353;28;20032;-82
2021/06/03 02:06:54;;;;;;;2.90;1.40;;;;;;;;;;5031167;28;20054;-82
2021/06/03 02:09:21;;;;;;;1.48;1.38;;;;;;;;;;5030646;28;20104;-82
2021/06/03 02:11:48;;;;;;;1.67;1.58;;;;;;;;;;5031855;28;20029;-82
2021/06/03 02:14:15;;;;;;;1.33;1.23;;;;;;;;;;5030486;28;20030;-82
2021/06/03 02:16:46;;;;;;;1.35;1.25;;;;;;;;;;5031804;28;20022;-83
2021/06/03 02:19:14;;;;;;;1.17;1.05;;;;;;;;;;5030490;28;20057;-82
2021/06/03 02:21:41;;;;;;;1.20;1.10;;;;;;;;;;5031787;28;20028;-82
2021/06/03 02:24:08;;;;;;;1.13;1.02;;;;;;;;;;5030358;28;20029;-82
2021/06/03 02:26:35;;;;;;;1.27;1.23;;;;;;;;;;5031537;28;20104;-82
2021/06/03 02:29:01;;;;;;;1.60;1.38;;;;;;;;;;5030404;28;20033;-82
2021/06/03 02:31:28;;;;;;;2.40;1.65;;;;;;;;;;5031465;28;20105;-82
2021/06/03 02:33:55;;;;;;;1.42;0.95;;;;;;;;;;5030359;28;20565;-82
2021/06/03 02:36:21;;;;;;;2.53;2.33;;;;;;;;;;5030662;28;20064;-82
2021/06/03 02:38:47;;;;;;;1.48;1.40;;;;;;;;;;5030888;28;20033;-82
2021/06/03 02:41:13;;;;;;;2.05;1.42;;;;;;;;;;5029770;28;20077;-82
2021/06/03 02:43:43;;;;;;;1.70;1.55;;;;;;;;;;5030398;28;20030;-82
2021/06/03 02:46:09;;;;;;;1.80;1.55;;;;;;;;;;5030866;28;20025;-82
2021/06/03 02:48:35;;;;;;;1.63;1.50;;;;;;;;;;5030693;28;20042;-82
2021/06/03 02:51:01;;;;;;;2.08;1.42;;;;;;;;;;5030979;28;20030;-82
2021/06/03 02:53:27;;;;;;;1.58;1.48;;;;;;;;;;5030574;28;20075;-82
2021/06/03 02:55:53;;;;;;;1.52;1.42;;;;;;;;;;5031236;28;20491;-82
2021/06/03 02:58:19;;;;;;;1.55;1.45;;;;;;;;;;5029078;28;20021;-82
2021/06/03 03:00:46;;;;;;;1.45;1.35;;;;;;;;;;5030545;28;20075;-82
2021/06/03 03:03:12;;;;;;;1.10;1.10;;;;;;;;;;5029962;28;20034;-82
2021/06/03 03:05:40;;;;;;;1.83;1.55;;;;;;;;;;5030765;28;20017;-82
2021/06/03 03:08:07;;;;;;;1.08;1.02;;;;;;;;;;5030614;28;20102;-82
2021/06/03 03:10:34;;;;;;;1.45;1.35;;;;;;;;;;5030552;28;20030;-82
2021/06/03 03:13:01;;;;;;;2.38;1.33;;;;;;;;;;5030957;28;20036;-82
2021/06/03 03:15:27;;;;;;;2.05;1.35;;;;;;;;;;5030806;28;20022;-82
2021/06/03 03:17:53;;;;;;;1.88;1.45;;;;;;;;;;5029396;28;20375;-82
2021/06/03 03:20:20;;;;;;;1.77;1.50;;;;;;;;;;5030588;28;20377;-82
2021/06/03 03:22:47;;;;;;;1.45;1.35;;;;;;;;;;5030750;28;20033;-82
2021/06/03 03:25:14;;;;;;;2.47;1.17;;;;;;;;;;5030006;28;20045;-82
2021/06/03 03:27:41;;;;;;;0.90;0.85;;;;;;;;;;5030694;28;20506;-82
2021/06/03 03:30:08;;;;;;;1.63;1.52;;;;;;;;;;5028777;28;20030;-82
2021/06/03 03:32:34;;;;;;;1.67;1.33;;;;;;;;;;5031107;28;20025;-82
2021/06/03 03:35:00;;;;;;;1.90;1.75;;;;;;;;;;5030582;28;20029;-82
2021/06/03 03:37:28;;;;;;;1.10;1.00;;;;;;;;;;5030025;28;20022;-82
2021/06/03 03:39:55;;;;;;;0.80;0.80;;;;;;;;;;5030701;28;20116;-82
2021/06/03 03:42:21;;;;;;;2.28;1.40;;;;;;;;;;5029986;28;20037;-82
2021/06/03 03:44:47;;;;;;;1.00;0.82;;;;;;;;;;5031003;28;20041;-82
2021/06/03 03:47:13;;;;;;;2.05;1.25;;;;;;;;;;5030194;28;20029;-82
2021/06/03 03:49:39;;;;;;;0.90;0.90;;;;;;;;;;5030059;28;20032;-82
2021/06/03 03:52:06;;;;;;;1.20;1.10;;;;;;;;;;5028763;28;20155;-82
2021/06/03 03:54:32;;;;;;;1.08;0.98;;;;;;;;;;5030155;28;20499;-82
2021/06/03 03:56:58;;;;;;;1.17;1.10;;;;;;;;;;5032636;28;20115;-82
2021/06/03 03:59:25;;;;;;;1.48;1.38;;;;;;;;;;5033751;28;20029;-82
2021/06/03 04:01:53;;;;;;;1.08;0.98;;;;;;;;;;5034136;28;20022;-82
2021/06/03 04:04:23;;;;;;;1.52;1.00;;;;;;;;;;5032738;28;20025;-82
2021/06/03 04:06:49;;;;;;;1.58;1.25;;;;;;;;;;5033796;28;20033;-82
2021/06/03 04:09:15;;;;;;;3.17;1.77;;;;;;;;;;5033006;28;20025;-82
2021/06/03 04:11:41;;;;;;;2.60;1.33;;;;;;;;;;5034100;28;20040;-82
2021/06/03 04:14:08;;;;;;;1.25;0.80;;;;;;;;;;5032782;28;20036;-82
2021/06/03 04:16:34;;;;;;;1.08;1.00;;;;;;;;;;5033054;28;20032;-82
2021/06/03 04:19:00;;;;;;;1.63;1.48;;;;;;;;;;5033745;28;20029;-82
2021/06/03 04:21:26;;;;;;;2.25;1.25;;;;;;;;;;5033752;28;20404;-82
2021/06/03 04:23:52;;;;;;;1.35;0.90;;;;;;;;;;5033109;28;20056;-82
2021/06/03 04:26:18;;;;;;;1.73;1.15;;;;;;;;;;5033370;28;20100;-82
2021/06/03 04:28:45;;;;;;;1.67;1.40;;;;;;;;;;5032259;28;20052;-82
2021/06/03 04:31:11;;;;;;;2.28;1.35;;;;;;;;;;5032884;28;20030;-82
2021/06/03 04:33:37;;;;;;;1.92;1.83;;;;;;;;;;5033907;28;20029;-82
2021/06/03 04:36:03;;;;;;;2.72;1.10;;;;;;;;;;5033164;28;20027;-82
2021/06/03 04:38:30;;;;;;;1.17;1.17;;;;;;;;;;5032404;28;20619;-82
2021/06/03 04:40:56;;;;;;;1.10;1.00;;;;;;;;;;5032969;28;20088;-82
2021/06/03 04:43:22;;;;;;;2.05;0.77;;;;;;;;;;5033279;28;20551;-82
2021/06/03 04:45:48;;;;;;;1.08;0.98;;;;;;;;;;5032312;28;20029;-82
2021/06/03 04:48:14;;;;;;;2.83;1.50;;;;;;;;;;5032195;28;20029;-82
2021/06/03 04:50:41;;;;;;;2.92;1.10;;;;;;;;;;5033510;28;20029;-82
2021/06/03 04:53:07;;;;;;;1.00;0.98;;;;;;;;;;5033190;28;20030;-82
2021/06/03 04:55:34;;;;;;;1.48;1.00;;;;;;;;;;5032910;28;20476;-82
2021/06/03 04:58:00;;;;;;;1.40;1.30;;;;;;;;;;5033106;28;20029;-82
2021/06/03 05:00:28;;;;;;;0.77;0.77;;;;;;;;;;5031284;28;20021;-82
2021/06/03 05:02:54;;;;;;;1.38;1.27;;;;;;;;;;5032494;28;20026;-82
2021/06/03 05:05:21;;;;;;;1.20;1.10;;;;;;;;;;5031080;28;20373;-82
2021/06/03 05:07:47;;;;;;;1.20;1.20;;;;;;;;;;5032176;28;20033;-82
2021/06/03 05:10:14;;;;;;;2.78;1.85;;;;;;;;;;5031902;28;20097;-82
2021/06/03 05:12:40;;;;;;;1.13;1.13;;;;;;;;;;5032275;28;20025;-82
2021/06/03 05:15:07;;;;;;;1.55;1.45;;;;;;;;;;5032637;28;20096;-82
2021/06/03 05:17:34;;;;;;;1.38;1.17;;;;;;;;;;5032261;28;20066;-82
2021/06/03 05:20:00;;;;;;;1.48;1.38;;;;;;;;;;5032664;28;20361;-82
2021/06/03 05:22:26;;;;;;;1.67;1.40;;;;;;;;;;5032703;28;20357;-82
2021/06/03 05:24:52;;;;;;;1.15;1.05;;;;;;;;;;5032793;28;20548;-82
2021/06/03 05:27:18;;;;;;;1.33;1.23;;;;;;;;;;5031538;28;20391;-82
2021/06/03 05:29:44;;;;;;;3.22;1.80;;;;;;;;;;5032495;28;20025;-82
2021/06/03 05:32:10;;;;;;;1.65;1.35;;;;;;;;;;5031695;28;20496;-81
2021/06/03 05:34:36;;;;;;;1.85;1.17;;;;;;;;;;5032402;28;20029;-82
2021/06/03 05:37:03;;;;;;;1.98;1.13;;;;;;;;;;5031533;28;20022;-81
2021/06/03 05:39:29;;;;;;;1.23;1.13;;;;;;;;;;5031608;28;20025;-82
2021/06/03 05:41:55;;;;;;;1.80;1.00;;;;;;;;;;5032428;28;20052;-82
2021/06/03 05:44:21;;;;;;;4.05;1.85;;;;;;;;;;5031914;28;20033;-83
2021/06/03 05:46:48;;;;;;;1.65;1.35;;;;;;;;;;5031643;28;20030;-82
2021/06/03 05:49:14;;;;;;;1.15;1.05;;;;;;;;;;5031422;28;20454;-82
2021/06/03 05:51:41;;;;;;;1.05;0.80;;;;;;;;;;5033658;28;20056;-82
2021/06/03 05:54:08;;;;;;;2.15;1.75;;;;;;;;;;5030176;28;20025;-82
2021/06/03 05:56:34;;;;;;;1.55;1.45;;;;;;;;;;5030152;28;20459;-82
2021/06/03 05:59:00;;;;;;;2.97;1.85;;;;;;;;;;5029674;28;20029;-82
2021/06/03 06:01:28;;;;;;;3.08;2.75;;;;;;;;;;5030474;28;20029;-82
2021/06/03 06:06:32;;;;;;;3.72;2.65;;;;;;;;;;5023945;28;20029;-82
2021/06/03 06:08:59;;;;;;;2.72;2.53;;;;;;;;;;5027952;28;20025;-82
2021/06/03 06:11:27;;;;;;;6.05;3.47;;;;;;;;;;5030433;28;20030;-82
2021/06/03 06:13:53;;;;;;;4.90;3.17;;;;;;;;;;5029493;28;20025;-82
2021/06/03 06:16:19;;;;;;;5.50;3.80;;;;;;;;;;5029755;28;20034;-82
2021/06/03 06:18:45;;;;;;;4.10;3.67;;;;;;;;;;5028571;28;20020;-82
2021/06/03 06:21:15;;;;;;;4.47;3.90;;;;;;;;;;5023978;28;20195;-82
2021/06/03 06:23:41;;;;;;;7.63;3.30;;;;;;;;;;5020433;28;20104;-83
2021/06/03 06:26:08;;;;;;;6.50;4.95;;;;;;;;;;5020402;28;20504;-81
2021/06/03 06:28:34;;;;;;;4.80;3.83;;;;;;;;;;5026895;28;20041;-84
2021/06/03 06:31:00;;;;;;;4.13;3.72;;;;;;;;;;5016238;28;20022;-84
2021/06/03 06:33:27;;;;;;;4.30;3.65;;;;;;;;;;5015844;28;20109;-85
2021/06/03 06:35:53;;;;;;;6.15;3.92;;;;;;;;;;5017002;28;20026;-83
2021/06/03 06:38:20;;;;;;;9.20;4.45;;;;;;;;;;5023721;28;20435;-84
2021/06/03 06:40:46;;;;;;;5.10;4.03;;;;;;;;;;5020941;28;20422;-84
2021/06/03 06:43:13;;;;;;;5.68;4.45;;;;;;;;;;5028834;28;20033;-84
2021/06/03 06:45:41;;;;;;;5.25;4.75;;;;;;;;;;5025088;28;20097;-84
2021/06/03 06:48:09;;;;;;;4.25;3.50;;;;;;;;;;5013936;28;20061;-84
2021/06/03 06:50:36;;;;;;;4.57;4.18;;;;;;;;;;5014344;28;20540;-84
2021/06/03 06:53:03;;;;;;;5.10;4.60;;;;;;;;;;5028447;28;20124;-84
2021/06/03 06:55:29;;;;;;;4.57;3.65;;;;;;;;;;5027397;28;20069;-83
2021/06/03 06:57:55;;;;;;;5.70;3.85;;;;;;;;;;5027500;28;20036;-84
2021/06/03 07:00:25;;;;;;;4.07;3.58;;;;;;;;;;5021323;28;20171;-82
2021/06/03 07:02:51;;;;;;;5.50;5.00;;;;;;;;;;5019112;28;20547;-84
2021/06/03 07:05:17;;;;;;;5.50;4.28;;;;;;;;;;5020617;28;20037;-83
2021/06/03 07:07:43;;;;;;;12.93;5.72;;;;;;;;;;5020296;28;20116;-83
2021/06/03 07:10:10;;;;;;;5.68;4.20;;;;;;;;;;5019700;28;20037;-82
2021/06/03 07:12:36;;;;;;;5.63;4.80;;;;;;;;;;5021904;28;20364;-84
2021/06/03 07:15:03;;;;;;;6.32;4.50;;;;;;;;;;5020488;28;20041;-81
2021/06/03 07:17:29;;;;;;;6.97;4.53;;;;;;;;;;5021656;28;20045;-83
2021/06/03 07:19:56;;;;;;;8.50;5.45;;;;;;;;;;5021397;28;20083;-84
2021/06/03 07:22:22;;;;;;;7.28;5.57;;;;;;;;;;5021258;28;20140;-84
2021/06/03 07:24:48;;;;;;;5.22;4.18;;;;;;;;;;5019509;28;20030;-84
2021/06/03 07:27:14;;;;;;;7.82;4.88;;;;;;;;;;5020591;28;20038;-85
2021/06/03 07:29:40;;;;;;;9.27;5.47;;;;;;;;;;5023191;28;20038;-84
2021/06/03 07:32:07;;;;;;;6.72;4.63;;;;;;;;;;5026008;28;20017;-84
2021/06/03 07:34:33;;;;;;;6.43;4.22;;;;;;;;;;5026474;28;20025;-85
2021/06/03 07:36:59;;;;;;;5.07;4.47;;;;;;;;;;5025474;28;20021;-84
2021/06/03 07:39:25;;;;;;;9.82;5.43;;;;;;;;;;5026207;28;20043;-88
2021/06/03 07:41:53;;;;;;;11.27;5.38;;;;;;;;;;5026501;28;21321;-85
2021/06/03 07:44:19;;;;;;;6.18;5.00;;;;;;;;;;5023840;28;20710;-84
2021/06/03 07:46:45;;;;;;;7.75;5.35;;;;;;;;;;5026576;28;20041;-82
2021/06/03 07:49:13;;;;;;;7.78;5.32;;;;;;;;;;5023607;28;20597;-82
2021/06/03 07:51:40;;;;;;;4.18;3.70;;;;;;;;;;5026014;28;20522;-82
2021/06/03 07:54:06;;;;;;;8.85;6.60;;;;;;;;;;5025867;28;20492;-82
2021/06/03 07:56:32;;;;;;;7.10;5.82;;;;;;;;;;5026846;28;20138;-83
2021/06/03 07:58:58;;;;;;;8.27;5.20;;;;;;;;;;5027264;28;20033;-85
2021/06/03 08:01:24;;;;;;;7.95;5.13;;;;;;;;;;5023745;28;20022;-84
2021/06/03 08:03:50;;;;;;;9.15;5.57;;;;;;;;;;5025517;28;20048;-85
2021/06/03 08:06:17;;;;;;;4.53;4.13;;;;;;;;;;5024517;28;20109;-87
2021/06/03 08:08:43;;;;;;;11.55;5.50;;;;;;;;;;5027139;28;20040;-84
2021/06/03 08:11:10;;;;;;;7.78;3.97;;;;;;;;;;5023359;28;20053;-83
2021/06/03 08:13:36;;;;;;;4.72;4.20;;;;;;;;;;5026830;28;20021;-82
2021/06/03 08:16:03;;;;;;;4.53;4.13;;;;;;;;;;5023253;28;20061;-83
2021/06/03 08:18:29;;;;;;;5.10;3.55;;;;;;;;;;5018907;28;20504;-83
2021/06/03 08:20:57;;;;;;;6.35;5.38;;;;;;;;;;5018703;28;20037;-83
2021/06/03 08:23:24;;;;;;;5.68;4.95;;;;;;;;;;5017930;28;20108;-83
2021/06/03 08:25:50;;;;;;;5.20;4.70;;;;;;;;;;5014978;28;20127;-83
2021/06/03 08:28:16;;;;;;;7.43;4.35;;;;;;;;;;5018166;28;20033;-83
2021/06/03 08:30:42;;;;;;;5.15;4.38;;;;;;;;;;5020385;28;20403;-84
2021/06/03 08:33:09;;;;;;;6.10;4.50;;;;;;;;;;5023164;28;20022;-83
2021/06/03 08:35:35;;;;;;;3.97;3.58;;;;;;;;;;5020381;28;20045;-84
2021/06/03 08:38:04;;;;;;;5.40;3.42;;;;;;;;;;5023846;28;20048;-84
2021/06/03 08:40:32;;;;;;;6.30;4.50;;;;;;;;;;5024452;28;20025;-84
2021/06/03 08:42:59;;;;;;;9.32;4.22;;;;;;;;;;5022189;28;20442;-84
2021/06/03 08:45:26;;;;;;;8.38;4.10;;;;;;;;;;5018672;28;20546;-83
2021/06/03 08:47:53;;;;;;;3.92;3.15;;;;;;;;;;5021727;28;20072;-84
2021/06/03 08:50:19;;;;;;;6.47;3.20;;;;;;;;;;5013212;28;20115;-83
2021/06/03 09:01:59;;;;;;;3.10;2.23;;;;;;;;;;5011398;28;20286;-83
2021/06/03 09:04:25;;;;;;;3.75;2.63;;;;;;;;;;5014827;28;20234;-83
2021/06/03 09:28:36;;;;;;;5.07;3.00;;;;;;;;;;5013411;28;20064;-81
2021/06/03 09:31:06;;;;;;;6.55;3.55;;;;;;;;;;5014017;28;20049;-83
2021/06/03 09:33:38;;;;;;;5.38;3.10;;;;;;;;;;5020942;28;20094;-82
2021/06/03 09:36:06;;;;;;;10.65;3.53;;;;;;;;;;5018889;28;20399;-83
2021/06/03 09:38:33;;;;;;;3.63;2.58;;;;;;;;;;5007111;28;20033;-82
2021/06/03 09:40:59;;;;;;;6.40;3.67;;;;;;;;;;5017665;28;20843;-83
2021/06/03 10:02:07;;;;;;;4.07;2.90;;;;;;;;;;5017721;28;20044;-82
2021/06/03 10:04:35;;;;;;;3.60;3.28;;;;;;;;;;5020586;28;20263;-83
2021/06/03 10:10:09;;;;;;;4.05;3.25;;;;;;;;;;5018954;28;20107;-82
2021/06/03 10:12:39;;;;;;;4.43;2.97;;;;;;;;;;5009943;28;20078;-83
2021/06/03 10:15:25;;;;;;;4.00;3.28;;;;;;;;;;5018826;28;20038;-83
2021/06/03 10:27:16;;;;;;;5.50;3.10;;;;;;;;;;5026308;28;20044;-82
2021/06/03 10:29:42;;;;;;;3.65;2.42;;;;;;;;;;5028322;28;20400;-83
2021/06/03 10:32:08;;;;;;;4.28;2.63;;;;;;;;;;5029590;28;20034;-86
2021/06/03 10:34:35;;;;;;;3.92;2.92;;;;;;;;;;5025486;28;20091;-82
2021/06/03 10:37:01;;;;;;;5.90;3.05;;;;;;;;;;5029957;28;20067;-82
2021/06/03 10:39:28;;;;;;;7.13;3.00;;;;;;;;;;5029301;28;20159;-82
2021/06/03 10:41:54;;;;;;;3.33;2.40;;;;;;;;;;5030107;28;20053;-82
2021/06/03 10:44:21;;;;;;;3.60;2.05;;;;;;;;;;5028871;28;20054;-82
2021/06/03 10:46:47;;;;;;;2.65;2.45;;;;;;;;;;5029988;28;20033;-82
2021/06/03 10:49:15;;;;;;;5.47;2.45;;;;;;;;;;5028866;28;20044;-82
2021/06/03 10:51:41;;;;;;;7.10;3.28;;;;;;;;;;5028940;28;20060;-82
2021/06/03 10:54:07;;;;;;;4.03;2.10;;;;;;;;;;5029480;28;20033;-82
2021/06/03 10:56:33;;;;;;;2.08;1.88;;;;;;;;;;5029538;28;20033;-82
2021/06/03 10:59:04;;;;;;;4.78;2.30;;;;;;;;;;5029594;28;20029;-82
2021/06/03 11:01:34;;;;;;;3.20;2.60;;;;;;;;;;5028570;28;20029;-82
2021/06/03 11:04:04;;;;;;;2.85;2.35;;;;;;;;;;5030979;28;20495;-82
2021/06/03 11:06:31;;;;;;;5.53;2.80;;;;;;;;;;5028258;28;20037;-82
2021/06/03 11:08:57;;;;;;;4.47;2.97;;;;;;;;;;5034301;28;20034;-82
2021/06/03 11:11:30;;;;;;;2.53;2.33;;;;;;;;;;5032500;28;20025;-82
2021/06/03 11:14:09;;;;;;;5.25;2.55;;;;;;;;;;5034198;28;20103;-82
2021/06/03 11:16:35;;;;;;;4.22;2.58;;;;;;;;;;5033531;28;20565;-83
2021/06/03 11:19:01;;;;;;;2.10;2.00;;;;;;;;;;5033334;28;20057;-83
2021/06/03 11:21:37;;;;;;;2.05;1.95;;;;;;;;;;5038761;28;20061;-83
2021/06/03 11:24:06;;;;;;;2.88;2.67;;;;;;;;;;5034087;28;20032;-85
2021/06/03 11:26:42;;;;;;;4.45;2.13;;;;;;;;;;5033489;28;20030;-83
2021/06/03 11:41:32;;;;;;;4.80;2.17;;;;;;;;;;5026065;28;20073;-83
2021/06/03 11:44:11;;;;;;;2.88;2.67;;;;;;;;;;5026872;28;20141;-83
2021/06/03 12:01:56;;;;;;;3.63;2.83;;;;;;;;;;5030057;28;20083;-72
2021/06/03 12:04:22;;;;;;;5.80;3.33;;;;;;;;;;5038664;28;20048;-72
2021/06/03 12:06:49;;;;;;;4.07;2.65;;;;;;;;;;5036711;28;20102;-71
2021/06/03 12:09:17;;;;;;;4.18;2.78;;;;;;;;;;5027838;28;20053;-72
2021/06/03 12:11:47;;;;;;;7.07;2.67;;;;;;;;;;5030661;28;20123;-76
2021/06/03 12:14:16;;;;;;;4.57;3.17;;;;;;;;;;5032216;28;20056;-72
2021/06/03 12:16:44;;;;;;;4.30;2.28;;;;;;;;;;5037953;28;20519;-72
2021/06/03 12:19:11;;;;;;;3.10;2.33;;;;;;;;;;5029149;28;20076;-72
2021/06/03 12:21:37;;;;;;;2.97;2.53;;;;;;;;;;5042942;28;20041;-72
2021/06/03 12:24:04;;;;;;;3.38;2.90;;;;;;;;;;5031897;28;20069;-72
2021/06/03 12:26:30;;;;;;;2.88;2.67;;;;;;;;;;5042860;28;20084;-72
2021/06/03 12:28:56;;;;;;;3.22;2.92;;;;;;;;;;5046214;28;20041;-72
2021/06/03 12:31:25;;;;;;;3.00;2.40;;;;;;;;;;5044954;28;20157;-73
2021/06/03 12:33:52;;;;;;;3.33;2.80;;;;;;;;;;5044450;28;20044;-73
2021/06/03 12:36:18;;;;;;;3.92;3.53;;;;;;;;;;5036289;28;20985;-72
2021/06/03 12:38:48;;;;;;;3.22;2.90;;;;;;;;;;5047666;28;20037;-72
2021/06/03 12:41:24;;;;;;;6.57;3.20;;;;;;;;;;5037746;28;20759;-73
2021/06/03 12:43:58;;;;;;;4.55;2.78;;;;;;;;;;5038478;28;20076;-73
2021/06/03 12:46:24;;;;;;;;;;;;;;;;;;5044380;28;20094;-73
2021/06/03 12:48:59;;;;;;;4.18;3.00;;;;;;;;;;5048853;28;20054;-72
2021/06/03 12:51:25;;;;;;;2.38;2.17;;;;;;;;;;5046462;28;20534;-72
2021/06/03 12:53:51;;;;;;;3.47;3.17;;;;;;;;;;5037304;28;20049;-73
2021/06/03 12:56:23;;;;;;;3.00;2.30;;;;;;;;;;5038185;28;20061;-73
2021/06/03 12:58:52;;;;;;;3.47;2.50;;;;;;;;;;5036386;28;20082;-73
2021/06/03 13:01:18;;;;;;;8.57;3.20;;;;;;;;;;5038988;28;20044;-73
2021/06/03 13:03:51;;;;;;;5.57;3.80;;;;;;;;;;5036460;28;20462;-73
2021/06/03 13:06:17;;;;;;;3.50;3.20;;;;;;;;;;5036715;28;20057;-73
2021/06/03 13:08:48;;;;;;;4.63;3.38;;;;;;;;;;5038296;28;20060;-72
2021/06/03 13:11:30;;;;;;;4.88;3.38;;;;;;;;;;5050768;28;20612;-74
2021/06/03 13:14:12;;;;;;;19.60;4.57;;;;;;;;;;5054855;28;20751;-72
2021/06/03 13:16:38;;;;;;;3.70;3.38;;;;;;;;;;5057605;28;20513;-71
2021/06/03 13:19:17;;;;;;;3.83;3.42;;;;;;;;;;5054254;28;21048;-72
2021/06/03 13:21:43;;;;;;;5.00;3.53;;;;;;;;;;5057940;28;20060;-72
2021/06/03 13:24:17;;;;;;;3.42;2.90;;;;;;;;;;5039877;28;20057;-71
2021/06/03 13:26:43;;;;;;;7.10;4.28;;;;;;;;;;5051495;28;20048;-71
2021/06/03 13:29:09;;;;;;;4.45;3.67;;;;;;;;;;5051433;28;20127;-71
2021/06/03 13:31:39;;;;;;;6.30;3.50;;;;;;;;;;5052186;28;20075;-72
2021/06/03 13:34:23;;;;;;;4.57;3.42;;;;;;;;;;5055686;28;20159;-70
2021/06/03 13:36:59;;;;;;;3.47;2.78;;;;;;;;;;5055045;28;20040;-72
2021/06/03 13:39:34;;;;;;;4.40;4.00;;;;;;;;;;5052897;28;20041;-72
2021/06/03 13:42:07;;;;;;;3.72;3.42;;;;;;;;;;5053027;28;20838;-72
2021/06/03 13:44:48;;;;;;;4.90;3.30;;;;;;;;;;5025614;28;20514;-72
2021/06/03 13:47:14;;;;;;;3.42;3.13;;;;;;;;;;5057606;28;20639;-72
2021/06/03 13:49:40;;;;;;;5.32;3.85;;;;;;;;;;5056838;28;20202;-72
2021/06/03 13:52:07;;;;;;;4.20;3.88;;;;;;;;;;5052452;28;20060;-73
2021/06/03 13:54:35;;;;;;;6.07;2.95;;;;;;;;;;5052730;28;20047;-73
2021/06/03 13:57:01;;;;;;;4.60;3.20;;;;;;;;;;5052525;28;20052;-73
2021/06/03 13:59:27;;;;;;;5.85;3.60;;;;;;;;;;5047285;28;21037;-73
2021/06/03 14:01:53;;;;;;;4.13;2.70;;;;;;;;;;5046518;28;20072;-70
2021/06/03 14:04:21;;;;;;;4.80;3.25;;;;;;;;;;5048843;28;20523;-71
2021/06/03 14:10:06;;;;;;;8.15;5.53;;;;;;;;;;4998610;28;20063;-69
2021/06/03 14:12:41;;;;;;;3.95;3.53;;;;;;;;;;5046961;28;20117;-72
2021/06/03 14:15:11;;;;;;;7.22;5.32;;;;;;;;;;5053505;28;20084;-71
2021/06/03 14:17:37;;;;;;;8.73;7.00;;;;;;;;;;5053854;28;20052;-72
2021/06/03 14:20:07;;;;;;;5.65;5.15;;;;;;;;;;5059409;28;20105;-72
2021/06/03 14:22:35;;;;;;;4.85;4.38;;;;;;;;;;5059048;28;20993;-73
2021/06/03 14:25:04;;;;;;;5.20;4.30;;;;;;;;;;5032627;28;20600;-72
2021/06/03 14:27:38;;;;;;;5.72;4.05;;;;;;;;;;5058763;28;20052;-72
2021/06/03 14:30:10;;;;;;;5.03;3.95;;;;;;;;;;5058073;28;20094;-73
2021/06/03 14:32:39;;;;;;;4.38;3.97;;;;;;;;;;5054339;28;20616;-73
2021/06/03 14:35:25;;;;;;;14.38;4.85;;;;;;;;;;5051950;28;21011;-72
2021/06/03 14:38:03;;;;;;;3.75;3.45;;;;;;;;;;5046941;28;20052;-72
2021/06/03 14:40:34;;;;;;;3.65;3.17;;;;;;;;;;5053920;28;20751;-72
2021/06/03 14:46:11;;;;;;;41.60;10.70;;;;;;;;;;5061052;28;20087;-72
2021/06/03 14:48:40;;;;;;;15.30;5.68;;;;;;;;;;5062936;28;20430;-73
2021/06/03 14:51:07;;;;;;;13.40;5.35;;;;;;;;;;5061392;28;20284;-71
2021/06/03 14:53:34;;;;;;;5.85;5.10;;;;;;;;;;5055860;28;20170;-73
2021/06/03 14:56:03;;;;;;;7.13;4.03;;;;;;;;;;5060209;28;20436;-73
2021/06/03 14:58:31;;;;;;;6.07;4.50;;;;;;;;;;5060459;28;20567;-72
2021/06/03 15:00:58;;;;;;;10.65;5.25;;;;;;;;;;5058901;28;20064;-73
2021/06/03 15:03:25;;;;;;;10.70;4.75;;;;;;;;;;5065695;28;20053;-75
2021/06/03 15:05:51;;;;;;;7.93;4.05;;;;;;;;;;5066809;28;20105;-73
2021/06/03 15:08:17;;;;;;;4.63;3.15;;;;;;;;;;5063792;28;20045;-73
2021/06/03 15:10:44;;;;;;;5.45;4.10;;;;;;;;;;5062728;28;20469;-71
2021/06/03 15:13:12;;;;;;;5.50;3.88;;;;;;;;;;5060625;28;20044;-74
2021/06/03 15:15:39;;;;;;;8.73;5.65;;;;;;;;;;5060561;28;20083;-73
2021/06/03 15:18:06;;;;;;;5.68;4.45;;;;;;;;;;5060383;28;20815;-72
2021/06/03 15:20:35;;;;;;;6.82;5.85;;;;;;;;;;5061905;28;20060;-75
2021/06/03 15:23:02;;;;;;;10.20;4.50;;;;;;;;;;5059301;28;20127;-73
2021/06/03 15:25:29;;;;;;;7.30;4.93;;;;;;;;;;5059239;28;20048;-73
2021/06/03 15:27:56;;;;;;;6.18;4.68;;;;;;;;;;5058320;28;20056;-73
2021/06/03 15:30:23;;;;;;;7.30;4.50;;;;;;;;;;5061198;28;20049;-73
2021/06/03 15:32:50;;;;;;;9.30;4.70;;;;;;;;;;5057746;28;20132;-71
2021/06/03 15:35:17;;;;;;;5.13;4.63;;;;;;;;;;5055671;28;20117;-73
2021/06/03 15:37:44;;;;;;;6.15;4.70;;;;;;;;;;5062042;28;20049;-74
2021/06/03 15:40:13;;;;;;;3.97;3.58;;;;;;;;;;5061016;28;20574;-72
2021/06/03 15:45:43;;;;;;;4.60;4.13;;;;;;;;;;5055957;28;20606;-75
2021/06/03 15:48:13;;;;;;;6.40;4.10;;;;;;;;;;5060724;28;20350;-73
2021/06/03 15:50:39;;;;;;;7.18;4.45;;;;;;;;;;5062544;28;20174;-73
2021/06/03 15:53:08;;;;;;;3.90;3.50;;;;;;;;;;5064026;28;21424;-72
2021/06/03 15:55:35;;;;;;;7.20;3.72;;;;;;;;;;5064446;28;20060;-78
2021/06/03 15:58:01;;;;;;;4.72;4.22;;;;;;;;;;5064006;28;20457;-73
2021/06/03 16:00:28;;;;;;;4.07;3.65;;;;;;;;;;5066017;28;20142;-72
2021/06/03 16:02:55;;;;;;;3.33;3.03;;;;;;;;;;5067525;28;20075;-74
2021/06/03 16:05:22;;;;;;;3.97;3.05;;;;;;;;;;5061632;28;20287;-73
2021/06/03 16:07:48;;;;;;;3.40;3.00;;;;;;;;;;5059933;28;20109;-73
2021/06/03 16:10:15;;;;;;;6.72;4.20;;;;;;;;;;5063941;28;20056;-73
2021/06/03 16:12:41;;;;;;;5.57;4.00;;;;;;;;;;5065166;28;20043;-73
2021/06/03 16:15:09;;;;;;;10.88;5.05;;;;;;;;;;5064424;28;20053;-74
2021/06/03 16:17:35;;;;;;;4.45;4.05;;;;;;;;;;5071171;28;20049;-75
2021/06/03 16:20:01;;;;;;;4.15;3.70;;;;;;;;;;5070824;28;20064;-74
2021/06/03 16:22:27;;;;;;;3.33;3.03;;;;;;;;;;5071496;28;20113;-74
2021/06/03 16:24:54;;;;;;;5.95;3.33;;;;;;;;;;5071044;28;20568;-74
2021/06/03 16:27:20;;;;;;;2.70;2.50;;;;;;;;;;5070471;28;20263;-74